sensor_id;sensor_type;location;lat;lon;timestamp;P1;durP1;ratioP1;P2;durP2;ratioP2
21110;SDS011;10713;51.912;4.494;2023-07-29T00:00:40;6.03;;;1.45;;
21110;SDS011;10713;51.912;4.494;2023-07-29T00:03:06;4.10;;;1.27;;
21110;SDS011;10713;51.912;4.494;2023-07-29T00:05:31;2.47;;;1.35;;
21110;SDS011;10713;51.912;4.494;2023-07-29T00:07:57;3.15;;;1.27;;
21110;SDS011;10713;51.912;4.494;2023-07-29T00:10:22;2.70;;;1.20;;
21110;SDS011;10713;51.912;4.494;2023-07-29T00:12:47;3.97;;;1.15;;
21110;SDS011;10713;51.912;4.494;2023-07-29T00:15:13;3.75;;;1.10;;
21110;SDS011;10713;51.912;4.494;2023-07-29T00:17:38;5.65;;;1.48;;
21110;SDS011;10713;51.912;4.494;2023-07-29T00:20:05;6.47;;;1.70;;
21110;SDS011;10713;51.912;4.494;2023-07-29T00:22:31;3.70;;;1.13;;
21110;SDS011;10713;51.912;4.494;2023-07-29T00:24:56;6.72;;;1.75;;
21110;SDS011;10713;51.912;4.494;2023-07-29T00:27:22;3.13;;;1.52;;
21110;SDS011;10713;51.912;4.494;2023-07-29T00:29:48;11.73;;;1.73;;
21110;SDS011;10713;51.912;4.494;2023-07-29T00:32:13;5.32;;;1.83;;
21110;SDS011;10713;51.912;4.494;2023-07-29T00:34:39;5.93;;;1.85;;
21110;SDS011;10713;51.912;4.494;2023-07-29T00:37:04;6.90;;;1.90;;
21110;SDS011;10713;51.912;4.494;2023-07-29T00:39:31;9.05;;;2.40;;
21110;SDS011;10713;51.912;4.494;2023-07-29T00:41:58;8.10;;;2.58;;
21110;SDS011;10713;51.912;4.494;2023-07-29T00:44:24;6.78;;;1.95;;
21110;SDS011;10713;51.912;4.494;2023-07-29T00:46:52;5.32;;;2.13;;
21110;SDS011;10713;51.912;4.494;2023-07-29T00:49:18;7.65;;;2.13;;
21110;SDS011;10713;51.912;4.494;2023-07-29T00:51:44;5.55;;;2.17;;
21110;SDS011;10713;51.912;4.494;2023-07-29T00:54:10;5.07;;;2.13;;
21110;SDS011;10713;51.912;4.494;2023-07-29T00:56:36;2.95;;;1.50;;
21110;SDS011;10713;51.912;4.494;2023-07-29T00:59:02;5.18;;;1.35;;
21110;SDS011;10713;51.912;4.494;2023-07-29T01:01:29;3.38;;;1.20;;
21110;SDS011;10713;51.912;4.494;2023-07-29T01:03:55;2.38;;;1.50;;
21110;SDS011;10713;51.912;4.494;2023-07-29T01:06:23;2.08;;;1.38;;
21110;SDS011;10713;51.912;4.494;2023-07-29T01:17:09;2.72;;;1.42;;
21110;SDS011;10713;51.912;4.494;2023-07-29T01:22:30;4.05;;;1.27;;
21110;SDS011;10713;51.912;4.494;2023-07-29T01:24:57;4.10;;;1.42;;
21110;SDS011;10713;51.912;4.494;2023-07-29T01:27:24;2.08;;;1.20;;
21110;SDS011;10713;51.912;4.494;2023-07-29T01:29:49;2.92;;;1.52;;
21110;SDS011;10713;51.912;4.494;2023-07-29T01:32:17;2.53;;;1.30;;
21110;SDS011;10713;51.912;4.494;2023-07-29T01:35:08;2.25;;;1.38;;
21110;SDS011;10713;51.912;4.494;2023-07-29T01:37:40;2.15;;;1.23;;
21110;SDS011;10713;51.912;4.494;2023-07-29T01:40:07;3.10;;;1.40;;
21110;SDS011;10713;51.912;4.494;2023-07-29T01:42:34;3.17;;;1.30;;
21110;SDS011;10713;51.912;4.494;2023-07-29T01:45:00;3.42;;;1.30;;
21110;SDS011;10713;51.912;4.494;2023-07-29T01:47:25;5.28;;;1.33;;
21110;SDS011;10713;51.912;4.494;2023-07-29T01:49:50;8.73;;;1.58;;
21110;SDS011;10713;51.912;4.494;2023-07-29T01:52:16;3.65;;;1.63;;
21110;SDS011;10713;51.912;4.494;2023-07-29T01:54:41;2.03;;;1.30;;
21110;SDS011;10713;51.912;4.494;2023-07-29T01:57:07;2.85;;;1.30;;
21110;SDS011;10713;51.912;4.494;2023-07-29T01:59:32;6.30;;;1.27;;
21110;SDS011;10713;51.912;4.494;2023-07-29T02:01:57;3.35;;;1.45;;
21110;SDS011;10713;51.912;4.494;2023-07-29T02:04:23;3.33;;;1.70;;
21110;SDS011;10713;51.912;4.494;2023-07-29T02:06:48;2.58;;;1.13;;
21110;SDS011;10713;51.912;4.494;2023-07-29T02:09:13;2.75;;;1.48;;
21110;SDS011;10713;51.912;4.494;2023-07-29T02:11:39;7.28;;;1.58;;
21110;SDS011;10713;51.912;4.494;2023-07-29T02:14:04;3.88;;;1.67;;
21110;SDS011;10713;51.912;4.494;2023-07-29T02:16:29;3.00;;;1.45;;
21110;SDS011;10713;51.912;4.494;2023-07-29T02:18:55;3.78;;;1.40;;
21110;SDS011;10713;51.912;4.494;2023-07-29T02:21:20;3.42;;;1.70;;
21110;SDS011;10713;51.912;4.494;2023-07-29T02:23:45;3.80;;;1.63;;
21110;SDS011;10713;51.912;4.494;2023-07-29T02:26:11;4.15;;;1.75;;
21110;SDS011;10713;51.912;4.494;2023-07-29T02:28:36;3.30;;;1.40;;
21110;SDS011;10713;51.912;4.494;2023-07-29T02:31:14;2.88;;;1.30;;
21110;SDS011;10713;51.912;4.494;2023-07-29T02:33:40;2.90;;;1.70;;
21110;SDS011;10713;51.912;4.494;2023-07-29T02:36:05;4.70;;;1.48;;
21110;SDS011;10713;51.912;4.494;2023-07-29T02:38:30;7.57;;;1.35;;
21110;SDS011;10713;51.912;4.494;2023-07-29T02:40:56;2.47;;;1.42;;
21110;SDS011;10713;51.912;4.494;2023-07-29T02:43:21;1.67;;;1.20;;
21110;SDS011;10713;51.912;4.494;2023-07-29T02:45:46;2.70;;;1.38;;
21110;SDS011;10713;51.912;4.494;2023-07-29T02:48:11;4.70;;;1.95;;
21110;SDS011;10713;51.912;4.494;2023-07-29T02:50:37;6.60;;;1.70;;
21110;SDS011;10713;51.912;4.494;2023-07-29T02:53:02;3.22;;;1.38;;
21110;SDS011;10713;51.912;4.494;2023-07-29T02:55:28;2.58;;;1.48;;
21110;SDS011;10713;51.912;4.494;2023-07-29T02:57:53;7.72;;;1.75;;
21110;SDS011;10713;51.912;4.494;2023-07-29T03:00:18;6.53;;;1.42;;
21110;SDS011;10713;51.912;4.494;2023-07-29T03:02:44;1.88;;;1.15;;
21110;SDS011;10713;51.912;4.494;2023-07-29T03:05:09;3.40;;;1.40;;
21110;SDS011;10713;51.912;4.494;2023-07-29T03:07:34;3.13;;;1.38;;
21110;SDS011;10713;51.912;4.494;2023-07-29T03:10:00;3.53;;;1.83;;
21110;SDS011;10713;51.912;4.494;2023-07-29T03:12:25;5.25;;;1.67;;
21110;SDS011;10713;51.912;4.494;2023-07-29T03:14:51;3.53;;;1.67;;
21110;SDS011;10713;51.912;4.494;2023-07-29T03:17:16;3.20;;;1.80;;
21110;SDS011;10713;51.912;4.494;2023-07-29T03:19:42;3.65;;;1.75;;
21110;SDS011;10713;51.912;4.494;2023-07-29T03:22:07;3.92;;;1.60;;
21110;SDS011;10713;51.912;4.494;2023-07-29T03:24:32;3.33;;;1.73;;
21110;SDS011;10713;51.912;4.494;2023-07-29T03:26:58;3.20;;;1.52;;
21110;SDS011;10713;51.912;4.494;2023-07-29T03:29:23;3.45;;;1.70;;
21110;SDS011;10713;51.912;4.494;2023-07-29T03:31:48;5.82;;;1.80;;
21110;SDS011;10713;51.912;4.494;2023-07-29T03:34:14;4.22;;;1.67;;
21110;SDS011;10713;51.912;4.494;2023-07-29T03:36:39;4.40;;;1.65;;
21110;SDS011;10713;51.912;4.494;2023-07-29T03:39:05;5.53;;;1.80;;
21110;SDS011;10713;51.912;4.494;2023-07-29T03:41:31;4.65;;;1.42;;
21110;SDS011;10713;51.912;4.494;2023-07-29T03:43:56;3.55;;;1.67;;
21110;SDS011;10713;51.912;4.494;2023-07-29T03:46:21;5.35;;;1.67;;
21110;SDS011;10713;51.912;4.494;2023-07-29T03:48:47;5.78;;;1.80;;
21110;SDS011;10713;51.912;4.494;2023-07-29T03:51:12;6.00;;;2.42;;
21110;SDS011;10713;51.912;4.494;2023-07-29T03:53:38;5.22;;;1.90;;
21110;SDS011;10713;51.912;4.494;2023-07-29T03:56:03;5.05;;;2.53;;
21110;SDS011;10713;51.912;4.494;2023-07-29T03:58:29;5.15;;;1.83;;
21110;SDS011;10713;51.912;4.494;2023-07-29T04:00:54;6.00;;;2.08;;
21110;SDS011;10713;51.912;4.494;2023-07-29T04:03:20;6.55;;;2.17;;
21110;SDS011;10713;51.912;4.494;2023-07-29T04:05:45;4.78;;;2.10;;
21110;SDS011;10713;51.912;4.494;2023-07-29T04:08:10;7.65;;;2.15;;
21110;SDS011;10713;51.912;4.494;2023-07-29T04:10:36;8.77;;;2.53;;
21110;SDS011;10713;51.912;4.494;2023-07-29T04:13:02;6.70;;;2.47;;
21110;SDS011;10713;51.912;4.494;2023-07-29T04:15:28;3.70;;;2.05;;
21110;SDS011;10713;51.912;4.494;2023-07-29T04:17:54;5.03;;;2.20;;
21110;SDS011;10713;51.912;4.494;2023-07-29T04:20:20;4.70;;;2.10;;
21110;SDS011;10713;51.912;4.494;2023-07-29T04:22:45;4.60;;;2.60;;
21110;SDS011;10713;51.912;4.494;2023-07-29T04:25:10;5.55;;;2.45;;
21110;SDS011;10713;51.912;4.494;2023-07-29T04:27:36;6.45;;;2.63;;
21110;SDS011;10713;51.912;4.494;2023-07-29T04:30:01;9.10;;;2.80;;
21110;SDS011;10713;51.912;4.494;2023-07-29T04:32:27;5.93;;;2.42;;
21110;SDS011;10713;51.912;4.494;2023-07-29T04:34:52;7.07;;;2.83;;
21110;SDS011;10713;51.912;4.494;2023-07-29T04:37:17;7.28;;;2.58;;
21110;SDS011;10713;51.912;4.494;2023-07-29T04:39:43;6.63;;;2.78;;
21110;SDS011;10713;51.912;4.494;2023-07-29T04:42:08;6.05;;;2.72;;
21110;SDS011;10713;51.912;4.494;2023-07-29T04:44:34;7.07;;;2.85;;
21110;SDS011;10713;51.912;4.494;2023-07-29T04:46:59;7.57;;;2.75;;
21110;SDS011;10713;51.912;4.494;2023-07-29T04:49:24;6.45;;;2.53;;
21110;SDS011;10713;51.912;4.494;2023-07-29T04:51:50;10.43;;;2.90;;
21110;SDS011;10713;51.912;4.494;2023-07-29T04:54:15;9.25;;;3.10;;
21110;SDS011;10713;51.912;4.494;2023-07-29T04:56:40;6.85;;;2.53;;
21110;SDS011;10713;51.912;4.494;2023-07-29T04:59:06;7.95;;;3.25;;
21110;SDS011;10713;51.912;4.494;2023-07-29T05:01:33;6.85;;;2.60;;
21110;SDS011;10713;51.912;4.494;2023-07-29T05:03:58;11.52;;;3.08;;
21110;SDS011;10713;51.912;4.494;2023-07-29T05:06:24;6.38;;;3.13;;
21110;SDS011;10713;51.912;4.494;2023-07-29T05:08:49;8.73;;;2.92;;
21110;SDS011;10713;51.912;4.494;2023-07-29T05:11:14;7.70;;;3.15;;
21110;SDS011;10713;51.912;4.494;2023-07-29T05:13:40;6.78;;;3.15;;
21110;SDS011;10713;51.912;4.494;2023-07-29T05:16:05;10.15;;;3.60;;
21110;SDS011;10713;51.912;4.494;2023-07-29T05:18:30;5.97;;;2.72;;
21110;SDS011;10713;51.912;4.494;2023-07-29T05:20:56;7.43;;;3.20;;
21110;SDS011;10713;51.912;4.494;2023-07-29T05:23:21;7.10;;;3.10;;
21110;SDS011;10713;51.912;4.494;2023-07-29T05:25:46;6.00;;;2.53;;
21110;SDS011;10713;51.912;4.494;2023-07-29T05:28:12;11.15;;;3.42;;
21110;SDS011;10713;51.912;4.494;2023-07-29T05:30:37;6.68;;;3.45;;
21110;SDS011;10713;51.912;4.494;2023-07-29T05:33:04;10.52;;;2.90;;
21110;SDS011;10713;51.912;4.494;2023-07-29T05:35:30;6.47;;;3.08;;
21110;SDS011;10713;51.912;4.494;2023-07-29T05:37:55;7.60;;;2.78;;
21110;SDS011;10713;51.912;4.494;2023-07-29T05:40:20;5.47;;;2.75;;
21110;SDS011;10713;51.912;4.494;2023-07-29T05:42:46;8.20;;;2.50;;
21110;SDS011;10713;51.912;4.494;2023-07-29T05:45:12;10.15;;;3.20;;
21110;SDS011;10713;51.912;4.494;2023-07-29T05:47:38;9.05;;;2.97;;
21110;SDS011;10713;51.912;4.494;2023-07-29T05:50:03;9.50;;;3.10;;
21110;SDS011;10713;51.912;4.494;2023-07-29T05:52:33;7.30;;;2.83;;
21110;SDS011;10713;51.912;4.494;2023-07-29T05:54:58;7.90;;;2.60;;
21110;SDS011;10713;51.912;4.494;2023-07-29T05:57:24;6.40;;;2.70;;
21110;SDS011;10713;51.912;4.494;2023-07-29T05:59:49;7.80;;;2.90;;
21110;SDS011;10713;51.912;4.494;2023-07-29T06:02:15;7.10;;;2.70;;
21110;SDS011;10713;51.912;4.494;2023-07-29T06:04:40;6.38;;;2.60;;
21110;SDS011;10713;51.912;4.494;2023-07-29T06:07:05;5.05;;;2.65;;
21110;SDS011;10713;51.912;4.494;2023-07-29T06:09:31;5.93;;;2.55;;
21110;SDS011;10713;51.912;4.494;2023-07-29T06:11:56;9.23;;;3.10;;
21110;SDS011;10713;51.912;4.494;2023-07-29T06:14:22;7.22;;;2.40;;
21110;SDS011;10713;51.912;4.494;2023-07-29T06:16:47;6.03;;;2.15;;
21110;SDS011;10713;51.912;4.494;2023-07-29T06:19:12;6.75;;;2.83;;
21110;SDS011;10713;51.912;4.494;2023-07-29T06:21:38;6.13;;;2.72;;
21110;SDS011;10713;51.912;4.494;2023-07-29T06:24:03;7.10;;;2.63;;
21110;SDS011;10713;51.912;4.494;2023-07-29T06:26:29;10.70;;;2.80;;
21110;SDS011;10713;51.912;4.494;2023-07-29T06:28:54;9.07;;;3.03;;
21110;SDS011;10713;51.912;4.494;2023-07-29T06:31:19;5.45;;;2.30;;
21110;SDS011;10713;51.912;4.494;2023-07-29T06:33:45;10.25;;;2.78;;
21110;SDS011;10713;51.912;4.494;2023-07-29T06:36:11;6.05;;;2.60;;
21110;SDS011;10713;51.912;4.494;2023-07-29T06:38:37;6.07;;;2.20;;
21110;SDS011;10713;51.912;4.494;2023-07-29T06:41:03;6.13;;;2.10;;
21110;SDS011;10713;51.912;4.494;2023-07-29T06:43:29;4.03;;;2.15;;
21110;SDS011;10713;51.912;4.494;2023-07-29T06:45:54;4.38;;;2.17;;
21110;SDS011;10713;51.912;4.494;2023-07-29T06:48:20;6.97;;;2.65;;
21110;SDS011;10713;51.912;4.494;2023-07-29T06:50:45;7.45;;;2.38;;
21110;SDS011;10713;51.912;4.494;2023-07-29T06:53:11;5.35;;;2.30;;
21110;SDS011;10713;51.912;4.494;2023-07-29T06:55:36;3.88;;;2.30;;
21110;SDS011;10713;51.912;4.494;2023-07-29T06:58:02;5.30;;;2.30;;
21110;SDS011;10713;51.912;4.494;2023-07-29T07:00:27;4.72;;;2.20;;
21110;SDS011;10713;51.912;4.494;2023-07-29T07:02:53;3.92;;;2.03;;
21110;SDS011;10713;51.912;4.494;2023-07-29T07:05:18;6.22;;;2.38;;
21110;SDS011;10713;51.912;4.494;2023-07-29T07:07:44;6.05;;;2.40;;
21110;SDS011;10713;51.912;4.494;2023-07-29T07:10:09;12.00;;;2.92;;
21110;SDS011;10713;51.912;4.494;2023-07-29T07:12:34;4.20;;;2.20;;
21110;SDS011;10713;51.912;4.494;2023-07-29T07:15:00;8.50;;;2.67;;
21110;SDS011;10713;51.912;4.494;2023-07-29T07:17:26;3.67;;;2.20;;
21110;SDS011;10713;51.912;4.494;2023-07-29T07:19:51;4.47;;;1.80;;
21110;SDS011;10713;51.912;4.494;2023-07-29T07:22:16;5.88;;;2.05;;
21110;SDS011;10713;51.912;4.494;2023-07-29T07:24:42;6.07;;;2.22;;
21110;SDS011;10713;51.912;4.494;2023-07-29T07:27:07;3.00;;;1.70;;
21110;SDS011;10713;51.912;4.494;2023-07-29T07:29:33;7.55;;;2.17;;
21110;SDS011;10713;51.912;4.494;2023-07-29T07:31:58;5.90;;;2.05;;
21110;SDS011;10713;51.912;4.494;2023-07-29T07:34:23;7.15;;;1.85;;
21110;SDS011;10713;51.912;4.494;2023-07-29T07:36:49;3.03;;;2.00;;
21110;SDS011;10713;51.912;4.494;2023-07-29T07:39:14;4.95;;;2.20;;
21110;SDS011;10713;51.912;4.494;2023-07-29T07:41:40;5.53;;;2.10;;
21110;SDS011;10713;51.912;4.494;2023-07-29T07:44:07;6.70;;;2.35;;
21110;SDS011;10713;51.912;4.494;2023-07-29T07:46:32;6.20;;;2.33;;
21110;SDS011;10713;51.912;4.494;2023-07-29T07:48:58;4.60;;;2.40;;
21110;SDS011;10713;51.912;4.494;2023-07-29T07:51:23;5.82;;;2.47;;
21110;SDS011;10713;51.912;4.494;2023-07-29T07:53:49;4.20;;;2.28;;
21110;SDS011;10713;51.912;4.494;2023-07-29T07:56:14;7.47;;;2.65;;
21110;SDS011;10713;51.912;4.494;2023-07-29T07:58:40;8.38;;;2.50;;
21110;SDS011;10713;51.912;4.494;2023-07-29T08:01:06;4.22;;;2.00;;
21110;SDS011;10713;51.912;4.494;2023-07-29T08:03:32;2.90;;;1.83;;
21110;SDS011;10713;51.912;4.494;2023-07-29T08:05:58;5.22;;;2.03;;
21110;SDS011;10713;51.912;4.494;2023-07-29T08:08:25;6.15;;;2.58;;
21110;SDS011;10713;51.912;4.494;2023-07-29T08:10:52;5.20;;;2.10;;
21110;SDS011;10713;51.912;4.494;2023-07-29T08:13:21;4.22;;;2.20;;
21110;SDS011;10713;51.912;4.494;2023-07-29T08:15:48;3.65;;;2.05;;
21110;SDS011;10713;51.912;4.494;2023-07-29T08:18:14;5.38;;;2.72;;
21110;SDS011;10713;51.912;4.494;2023-07-29T08:20:39;6.40;;;2.65;;
21110;SDS011;10713;51.912;4.494;2023-07-29T08:23:04;6.45;;;2.90;;
21110;SDS011;10713;51.912;4.494;2023-07-29T08:25:30;5.88;;;2.60;;
21110;SDS011;10713;51.912;4.494;2023-07-29T08:27:55;7.35;;;3.20;;
21110;SDS011;10713;51.912;4.494;2023-07-29T08:30:20;3.83;;;2.25;;
21110;SDS011;10713;51.912;4.494;2023-07-29T08:32:46;4.78;;;2.95;;
21110;SDS011;10713;51.912;4.494;2023-07-29T08:35:11;4.80;;;2.92;;
21110;SDS011;10713;51.912;4.494;2023-07-29T08:37:36;4.55;;;2.60;;
21110;SDS011;10713;51.912;4.494;2023-07-29T08:40:02;5.97;;;2.85;;
21110;SDS011;10713;51.912;4.494;2023-07-29T08:42:28;6.40;;;2.40;;
21110;SDS011;10713;51.912;4.494;2023-07-29T08:44:56;6.93;;;2.42;;
21110;SDS011;10713;51.912;4.494;2023-07-29T08:47:26;4.28;;;1.95;;
21110;SDS011;10713;51.912;4.494;2023-07-29T08:49:52;3.53;;;2.35;;
21110;SDS011;10713;51.912;4.494;2023-07-29T08:52:19;6.68;;;2.17;;
21110;SDS011;10713;51.912;4.494;2023-07-29T08:54:45;3.22;;;2.25;;
21110;SDS011;10713;51.912;4.494;2023-07-29T08:57:11;5.50;;;2.45;;
21110;SDS011;10713;51.912;4.494;2023-07-29T08:59:38;5.05;;;2.25;;
21110;SDS011;10713;51.912;4.494;2023-07-29T09:02:04;5.05;;;2.40;;
21110;SDS011;10713;51.912;4.494;2023-07-29T09:04:29;4.47;;;2.50;;
21110;SDS011;10713;51.912;4.494;2023-07-29T09:06:54;5.30;;;2.70;;
21110;SDS011;10713;51.912;4.494;2023-07-29T09:09:21;4.03;;;2.50;;
21110;SDS011;10713;51.912;4.494;2023-07-29T09:11:47;4.65;;;2.70;;
21110;SDS011;10713;51.912;4.494;2023-07-29T09:14:13;4.70;;;2.65;;
21110;SDS011;10713;51.912;4.494;2023-07-29T09:16:38;4.45;;;2.88;;
21110;SDS011;10713;51.912;4.494;2023-07-29T09:19:04;9.73;;;2.42;;
21110;SDS011;10713;51.912;4.494;2023-07-29T09:21:30;6.07;;;2.75;;
21110;SDS011;10713;51.912;4.494;2023-07-29T09:23:56;5.10;;;2.13;;
21110;SDS011;10713;51.912;4.494;2023-07-29T09:26:22;6.40;;;2.10;;
21110;SDS011;10713;51.912;4.494;2023-07-29T09:28:57;6.97;;;1.92;;
21110;SDS011;10713;51.912;4.494;2023-07-29T09:31:24;3.63;;;1.42;;
21110;SDS011;10713;51.912;4.494;2023-07-29T09:33:58;4.30;;;1.50;;
21110;SDS011;10713;51.912;4.494;2023-07-29T09:36:24;2.13;;;1.75;;
21110;SDS011;10713;51.912;4.494;2023-07-29T09:38:54;4.07;;;1.50;;
21110;SDS011;10713;51.912;4.494;2023-07-29T09:41:21;4.47;;;1.98;;
21110;SDS011;10713;51.912;4.494;2023-07-29T09:43:48;4.57;;;1.20;;
21110;SDS011;10713;51.912;4.494;2023-07-29T09:46:22;1.80;;;1.08;;
21110;SDS011;10713;51.912;4.494;2023-07-29T09:48:48;4.57;;;1.13;;
21110;SDS011;10713;51.912;4.494;2023-07-29T09:51:15;2.05;;;1.00;;
21110;SDS011;10713;51.912;4.494;2023-07-29T09:53:45;5.35;;;1.60;;
21110;SDS011;10713;51.912;4.494;2023-07-29T09:56:12;4.50;;;1.10;;
21110;SDS011;10713;51.912;4.494;2023-07-29T09:58:37;1.45;;;0.70;;
21110;SDS011;10713;51.912;4.494;2023-07-29T10:01:06;3.17;;;0.80;;
21110;SDS011;10713;51.912;4.494;2023-07-29T10:03:32;2.22;;;0.60;;
21110;SDS011;10713;51.912;4.494;2023-07-29T10:06:05;1.35;;;0.68;;
21110;SDS011;10713;51.912;4.494;2023-07-29T10:08:31;1.60;;;0.70;;
21110;SDS011;10713;51.912;4.494;2023-07-29T10:11:00;2.60;;;1.10;;
21110;SDS011;10713;51.912;4.494;2023-07-29T10:13:26;4.68;;;1.20;;
21110;SDS011;10713;51.912;4.494;2023-07-29T10:15:53;1.27;;;0.75;;
21110;SDS011;10713;51.912;4.494;2023-07-29T10:18:19;4.50;;;1.25;;
21110;SDS011;10713;51.912;4.494;2023-07-29T10:20:47;1.73;;;0.88;;
21110;SDS011;10713;51.912;4.494;2023-07-29T10:23:15;3.70;;;1.30;;
21110;SDS011;10713;51.912;4.494;2023-07-29T10:25:44;1.30;;;0.90;;
21110;SDS011;10713;51.912;4.494;2023-07-29T10:28:15;2.85;;;0.90;;
21110;SDS011;10713;51.912;4.494;2023-07-29T10:30:43;2.17;;;1.02;;
21110;SDS011;10713;51.912;4.494;2023-07-29T10:33:09;2.40;;;1.45;;
21110;SDS011;10713;51.912;4.494;2023-07-29T10:35:35;2.03;;;1.30;;
21110;SDS011;10713;51.912;4.494;2023-07-29T10:38:02;6.05;;;1.63;;
21110;SDS011;10713;51.912;4.494;2023-07-29T10:43:34;2.92;;;1.58;;
21110;SDS011;10713;51.912;4.494;2023-07-29T10:46:17;4.63;;;1.85;;
21110;SDS011;10713;51.912;4.494;2023-07-29T10:56:35;9.30;;;1.73;;
21110;SDS011;10713;51.912;4.494;2023-07-29T11:01:42;9.95;;;2.30;;
21110;SDS011;10713;51.912;4.494;2023-07-29T11:09:40;3.78;;;1.50;;
21110;SDS011;10713;51.912;4.494;2023-07-29T11:17:39;3.38;;;1.60;;
21110;SDS011;10713;51.912;4.494;2023-07-29T11:20:06;8.07;;;1.50;;
21110;SDS011;10713;51.912;4.494;2023-07-29T11:22:33;5.65;;;1.73;;
21110;SDS011;10713;51.912;4.494;2023-07-29T11:24:59;6.45;;;1.65;;
21110;SDS011;10713;51.912;4.494;2023-07-29T11:27:24;4.23;;;1.60;;
21110;SDS011;10713;51.912;4.494;2023-07-29T11:29:49;4.05;;;1.80;;
21110;SDS011;10713;51.912;4.494;2023-07-29T11:32:15;3.47;;;1.70;;
21110;SDS011;10713;51.912;4.494;2023-07-29T11:34:41;3.20;;;1.85;;
21110;SDS011;10713;51.912;4.494;2023-07-29T11:37:08;12.43;;;2.88;;
21110;SDS011;10713;51.912;4.494;2023-07-29T11:39:42;3.53;;;2.00;;
21110;SDS011;10713;51.912;4.494;2023-07-29T11:42:14;6.85;;;2.20;;
21110;SDS011;10713;51.912;4.494;2023-07-29T11:44:39;4.05;;;1.80;;
21110;SDS011;10713;51.912;4.494;2023-07-29T11:47:09;10.95;;;3.55;;
21110;SDS011;10713;51.912;4.494;2023-07-29T11:49:35;2.72;;;1.90;;
21110;SDS011;10713;51.912;4.494;2023-07-29T11:52:02;3.85;;;2.28;;
21110;SDS011;10713;51.912;4.494;2023-07-29T11:54:28;4.15;;;2.20;;
21110;SDS011;10713;51.912;4.494;2023-07-29T11:56:54;5.43;;;2.17;;
21110;SDS011;10713;51.912;4.494;2023-07-29T11:59:20;7.68;;;2.53;;
21110;SDS011;10713;51.912;4.494;2023-07-29T12:01:46;5.75;;;2.60;;
21110;SDS011;10713;51.912;4.494;2023-07-29T12:04:11;3.88;;;2.05;;
21110;SDS011;10713;51.912;4.494;2023-07-29T12:06:37;6.95;;;2.42;;
21110;SDS011;10713;51.912;4.494;2023-07-29T12:09:04;3.42;;;2.00;;
21110;SDS011;10713;51.912;4.494;2023-07-29T12:11:30;11.05;;;3.00;;
21110;SDS011;10713;51.912;4.494;2023-07-29T12:13:55;4.38;;;2.47;;
21110;SDS011;10713;51.912;4.494;2023-07-29T12:16:21;7.05;;;2.38;;
21110;SDS011;10713;51.912;4.494;2023-07-29T12:18:46;4.07;;;2.30;;
21110;SDS011;10713;51.912;4.494;2023-07-29T12:21:13;5.18;;;2.47;;
21110;SDS011;10713;51.912;4.494;2023-07-29T12:23:39;4.20;;;1.88;;
21110;SDS011;10713;51.912;4.494;2023-07-29T12:26:05;4.38;;;2.20;;
21110;SDS011;10713;51.912;4.494;2023-07-29T12:28:30;3.17;;;1.98;;
21110;SDS011;10713;51.912;4.494;2023-07-29T12:30:56;2.33;;;1.80;;
21110;SDS011;10713;51.912;4.494;2023-07-29T12:33:35;3.50;;;1.95;;
21110;SDS011;10713;51.912;4.494;2023-07-29T12:36:03;3.72;;;2.08;;
21110;SDS011;10713;51.912;4.494;2023-07-29T12:38:30;6.13;;;1.70;;
21110;SDS011;10713;51.912;4.494;2023-07-29T12:40:56;4.53;;;1.75;;
21110;SDS011;10713;51.912;4.494;2023-07-29T12:43:22;3.53;;;1.50;;
21110;SDS011;10713;51.912;4.494;2023-07-29T12:45:50;3.40;;;1.58;;
21110;SDS011;10713;51.912;4.494;2023-07-29T12:48:16;5.47;;;1.70;;
21110;SDS011;10713;51.912;4.494;2023-07-29T12:50:41;4.25;;;1.73;;
21110;SDS011;10713;51.912;4.494;2023-07-29T12:53:07;3.13;;;1.55;;
21110;SDS011;10713;51.912;4.494;2023-07-29T12:55:35;1.55;;;1.05;;
21110;SDS011;10713;51.912;4.494;2023-07-29T12:58:00;3.53;;;1.30;;
21110;SDS011;10713;51.912;4.494;2023-07-29T13:00:26;4.35;;;1.38;;
21110;SDS011;10713;51.912;4.494;2023-07-29T13:02:51;3.38;;;1.38;;
21110;SDS011;10713;51.912;4.494;2023-07-29T13:05:17;4.95;;;1.50;;
21110;SDS011;10713;51.912;4.494;2023-07-29T13:07:42;2.80;;;1.20;;
21110;SDS011;10713;51.912;4.494;2023-07-29T13:10:09;3.20;;;1.60;;
21110;SDS011;10713;51.912;4.494;2023-07-29T13:12:35;1.95;;;1.20;;
21110;SDS011;10713;51.912;4.494;2023-07-29T13:15:00;2.10;;;1.20;;
21110;SDS011;10713;51.912;4.494;2023-07-29T13:17:26;6.72;;;1.48;;
21110;SDS011;10713;51.912;4.494;2023-07-29T13:19:51;3.75;;;1.10;;
21110;SDS011;10713;51.912;4.494;2023-07-29T13:22:17;4.03;;;1.10;;
21110;SDS011;10713;51.912;4.494;2023-07-29T13:24:42;2.55;;;1.20;;
21110;SDS011;10713;51.912;4.494;2023-07-29T13:27:08;3.40;;;1.67;;
21110;SDS011;10713;51.912;4.494;2023-07-29T13:29:33;3.90;;;0.93;;
21110;SDS011;10713;51.912;4.494;2023-07-29T13:31:59;7.00;;;1.20;;
21110;SDS011;10713;51.912;4.494;2023-07-29T13:34:24;2.63;;;1.35;;
21110;SDS011;10713;51.912;4.494;2023-07-29T13:36:49;3.33;;;1.35;;
21110;SDS011;10713;51.912;4.494;2023-07-29T13:39:15;5.57;;;1.77;;
21110;SDS011;10713;51.912;4.494;2023-07-29T13:41:40;4.50;;;1.40;;
21110;SDS011;10713;51.912;4.494;2023-07-29T13:44:06;9.45;;;1.95;;
21110;SDS011;10713;51.912;4.494;2023-07-29T13:46:31;6.50;;;1.35;;
21110;SDS011;10713;51.912;4.494;2023-07-29T13:48:56;1.33;;;0.88;;
21110;SDS011;10713;51.912;4.494;2023-07-29T13:51:22;4.75;;;1.48;;
21110;SDS011;10713;51.912;4.494;2023-07-29T13:53:47;3.22;;;1.55;;
21110;SDS011;10713;51.912;4.494;2023-07-29T13:56:13;2.50;;;1.05;;
21110;SDS011;10713;51.912;4.494;2023-07-29T13:58:38;5.05;;;1.02;;
21110;SDS011;10713;51.912;4.494;2023-07-29T14:01:04;2.20;;;0.90;;
21110;SDS011;10713;51.912;4.494;2023-07-29T14:03:29;2.95;;;1.10;;
21110;SDS011;10713;51.912;4.494;2023-07-29T14:05:55;2.87;;;1.20;;
21110;SDS011;10713;51.912;4.494;2023-07-29T14:08:20;3.63;;;1.13;;
21110;SDS011;10713;51.912;4.494;2023-07-29T14:10:48;2.58;;;1.13;;
21110;SDS011;10713;51.912;4.494;2023-07-29T14:13:14;1.85;;;1.10;;
21110;SDS011;10713;51.912;4.494;2023-07-29T14:15:39;3.40;;;1.15;;
21110;SDS011;10713;51.912;4.494;2023-07-29T14:18:04;3.83;;;1.10;;
21110;SDS011;10713;51.912;4.494;2023-07-29T14:20:31;2.63;;;1.05;;
21110;SDS011;10713;51.912;4.494;2023-07-29T14:22:57;3.25;;;1.20;;
21110;SDS011;10713;51.912;4.494;2023-07-29T14:25:22;1.95;;;1.10;;
21110;SDS011;10713;51.912;4.494;2023-07-29T14:27:47;6.43;;;1.02;;
21110;SDS011;10713;51.912;4.494;2023-07-29T14:30:13;3.35;;;1.05;;
21110;SDS011;10713;51.912;4.494;2023-07-29T14:32:38;1.45;;;1.00;;
21110;SDS011;10713;51.912;4.494;2023-07-29T14:35:04;2.72;;;1.50;;
21110;SDS011;10713;51.912;4.494;2023-07-29T14:37:30;3.08;;;1.20;;
21110;SDS011;10713;51.912;4.494;2023-07-29T14:39:57;3.47;;;1.30;;
21110;SDS011;10713;51.912;4.494;2023-07-29T14:42:23;2.00;;;1.27;;
21110;SDS011;10713;51.912;4.494;2023-07-29T14:44:48;2.88;;;1.33;;
21110;SDS011;10713;51.912;4.494;2023-07-29T14:47:13;3.43;;;1.27;;
21110;SDS011;10713;51.912;4.494;2023-07-29T14:49:39;4.47;;;1.60;;
21110;SDS011;10713;51.912;4.494;2023-07-29T14:52:04;9.33;;;1.67;;
21110;SDS011;10713;51.912;4.494;2023-07-29T14:54:30;5.43;;;1.35;;
21110;SDS011;10713;51.912;4.494;2023-07-29T14:56:56;4.13;;;1.42;;
21110;SDS011;10713;51.912;4.494;2023-07-29T14:59:21;5.33;;;1.53;;
21110;SDS011;10713;51.912;4.494;2023-07-29T15:01:46;2.72;;;1.85;;
21110;SDS011;10713;51.912;4.494;2023-07-29T15:04:12;2.92;;;1.52;;
21110;SDS011;10713;51.912;4.494;2023-07-29T15:06:37;2.55;;;1.55;;
21110;SDS011;10713;51.912;4.494;2023-07-29T15:09:03;2.85;;;1.58;;
21110;SDS011;10713;51.912;4.494;2023-07-29T15:11:30;4.90;;;1.38;;
21110;SDS011;10713;51.912;4.494;2023-07-29T15:13:57;4.22;;;1.80;;
21110;SDS011;10713;51.912;4.494;2023-07-29T15:16:23;2.97;;;1.50;;